sensor_id;sensor_type;location;lat;lon;timestamp;P1;durP1;ratioP1;P2;durP2;ratioP2
20928;SDS011;21895;47.072;15.132;2024-01-15T00:00:10;13.80;;;7.63;;
20928;SDS011;21895;47.072;15.132;2024-01-15T00:02:37;5.53;;;4.30;;
20928;SDS011;21895;47.072;15.132;2024-01-15T00:05:04;9.50;;;7.13;;
20928;SDS011;21895;47.072;15.132;2024-01-15T00:07:30;13.77;;;5.60;;
20928;SDS011;21895;47.072;15.132;2024-01-15T00:09:57;6.03;;;4.00;;
20928;SDS011;21895;47.072;15.132;2024-01-15T00:12:24;11.70;;;4.87;;
20928;SDS011;21895;47.072;15.132;2024-01-15T00:14:50;11.87;;;6.50;;
20928;SDS011;21895;47.072;15.132;2024-01-15T00:17:17;5.90;;;3.30;;
20928;SDS011;21895;47.072;15.132;2024-01-15T00:19:44;7.67;;;4.70;;
20928;SDS011;21895;47.072;15.132;2024-01-15T00:22:10;5.77;;;4.63;;
20928;SDS011;21895;47.072;15.132;2024-01-15T00:24:37;10.37;;;5.77;;
20928;SDS011;21895;47.072;15.132;2024-01-15T00:27:04;16.23;;;5.83;;
20928;SDS011;21895;47.072;15.132;2024-01-15T00:29:31;6.17;;;3.33;;
20928;SDS011;21895;47.072;15.132;2024-01-15T00:31:57;8.17;;;4.23;;
20928;SDS011;21895;47.072;15.132;2024-01-15T00:34:24;3.27;;;3.00;;
20928;SDS011;21895;47.072;15.132;2024-01-15T00:36:51;6.23;;;3.17;;
20928;SDS011;21895;47.072;15.132;2024-01-15T00:39:17;7.20;;;4.63;;
20928;SDS011;21895;47.072;15.132;2024-01-15T00:41:44;4.03;;;3.13;;
20928;SDS011;21895;47.072;15.132;2024-01-15T00:44:10;10.27;;;4.57;;
20928;SDS011;21895;47.072;15.132;2024-01-15T00:46:43;7.20;;;4.57;;
20928;SDS011;21895;47.072;15.132;2024-01-15T00:49:12;10.23;;;4.57;;
20928;SDS011;21895;47.072;15.132;2024-01-15T00:51:40;11.83;;;3.83;;
20928;SDS011;21895;47.072;15.132;2024-01-15T00:54:07;4.07;;;3.50;;
20928;SDS011;21895;47.072;15.132;2024-01-15T00:56:33;3.00;;;2.73;;
20928;SDS011;21895;47.072;15.132;2024-01-15T00:59:00;4.97;;;3.53;;
20928;SDS011;21895;47.072;15.132;2024-01-15T01:01:27;4.70;;;4.07;;
20928;SDS011;21895;47.072;15.132;2024-01-15T01:03:53;13.90;;;3.30;;
20928;SDS011;21895;47.072;15.132;2024-01-15T01:06:20;8.77;;;3.53;;
20928;SDS011;21895;47.072;15.132;2024-01-15T01:08:47;6.97;;;3.57;;
20928;SDS011;21895;47.072;15.132;2024-01-15T01:11:15;11.47;;;3.10;;
20928;SDS011;21895;47.072;15.132;2024-01-15T01:13:42;9.63;;;6.20;;
20928;SDS011;21895;47.072;15.132;2024-01-15T01:16:08;7.53;;;4.43;;
20928;SDS011;21895;47.072;15.132;2024-01-15T01:18:35;4.53;;;3.50;;
20928;SDS011;21895;47.072;15.132;2024-01-15T01:21:02;8.23;;;3.97;;
20928;SDS011;21895;47.072;15.132;2024-01-15T01:23:29;12.87;;;3.53;;
20928;SDS011;21895;47.072;15.132;2024-01-15T01:25:55;10.47;;;2.87;;
20928;SDS011;21895;47.072;15.132;2024-01-15T01:28:22;9.33;;;4.20;;
20928;SDS011;21895;47.072;15.132;2024-01-15T01:30:48;8.10;;;4.27;;
20928;SDS011;21895;47.072;15.132;2024-01-15T01:33:15;12.07;;;4.20;;
20928;SDS011;21895;47.072;15.132;2024-01-15T01:35:42;4.40;;;3.90;;
20928;SDS011;21895;47.072;15.132;2024-01-15T01:38:10;4.70;;;3.90;;
20928;SDS011;21895;47.072;15.132;2024-01-15T01:40:37;3.17;;;2.90;;
20928;SDS011;21895;47.072;15.132;2024-01-15T01:43:04;11.33;;;5.17;;
20928;SDS011;21895;47.072;15.132;2024-01-15T01:45:31;10.07;;;4.83;;
20928;SDS011;21895;47.072;15.132;2024-01-15T01:47:58;3.00;;;2.27;;
20928;SDS011;21895;47.072;15.132;2024-01-15T01:50:26;5.77;;;2.87;;
20928;SDS011;21895;47.072;15.132;2024-01-15T01:52:54;11.47;;;5.10;;
20928;SDS011;21895;47.072;15.132;2024-01-15T01:55:21;7.20;;;2.63;;
20928;SDS011;21895;47.072;15.132;2024-01-15T01:57:53;4.43;;;2.90;;
20928;SDS011;21895;47.072;15.132;2024-01-15T02:00:21;5.33;;;2.93;;
20928;SDS011;21895;47.072;15.132;2024-01-15T02:02:48;9.13;;;3.80;;
20928;SDS011;21895;47.072;15.132;2024-01-15T02:05:17;8.83;;;2.30;;
20928;SDS011;21895;47.072;15.132;2024-01-15T02:07:47;13.53;;;4.33;;
20928;SDS011;21895;47.072;15.132;2024-01-15T02:10:14;3.63;;;2.33;;
20928;SDS011;21895;47.072;15.132;2024-01-15T02:12:42;8.90;;;4.17;;
20928;SDS011;21895;47.072;15.132;2024-01-15T02:15:09;5.17;;;3.80;;
20928;SDS011;21895;47.072;15.132;2024-01-15T02:17:55;6.07;;;3.60;;
20928;SDS011;21895;47.072;15.132;2024-01-15T02:20:33;8.40;;;2.93;;
20928;SDS011;21895;47.072;15.132;2024-01-15T02:23:03;11.77;;;4.90;;
20928;SDS011;21895;47.072;15.132;2024-01-15T02:25:43;2.87;;;2.20;;
20928;SDS011;21895;47.072;15.132;2024-01-15T02:28:13;5.00;;;2.97;;
20928;SDS011;21895;47.072;15.132;2024-01-15T02:30:43;7.60;;;5.47;;
20928;SDS011;21895;47.072;15.132;2024-01-15T02:33:11;4.10;;;2.63;;
20928;SDS011;21895;47.072;15.132;2024-01-15T02:35:38;1.30;;;1.27;;
20928;SDS011;21895;47.072;15.132;2024-01-15T02:38:05;14.90;;;4.07;;
20928;SDS011;21895;47.072;15.132;2024-01-15T02:40:32;6.43;;;4.50;;
20928;SDS011;21895;47.072;15.132;2024-01-15T02:42:59;2.70;;;2.50;;
20928;SDS011;21895;47.072;15.132;2024-01-15T02:45:26;3.97;;;3.33;;
20928;SDS011;21895;47.072;15.132;2024-01-15T02:47:53;4.00;;;2.73;;
20928;SDS011;21895;47.072;15.132;2024-01-15T02:50:20;1.13;;;1.13;;
20928;SDS011;21895;47.072;15.132;2024-01-15T02:52:47;2.97;;;2.07;;
20928;SDS011;21895;47.072;15.132;2024-01-15T02:55:13;4.23;;;1.87;;
20928;SDS011;21895;47.072;15.132;2024-01-15T02:57:40;15.87;;;2.33;;
20928;SDS011;21895;47.072;15.132;2024-01-15T03:00:07;6.87;;;4.37;;
20928;SDS011;21895;47.072;15.132;2024-01-15T03:02:37;6.53;;;4.13;;
20928;SDS011;21895;47.072;15.132;2024-01-15T03:05:09;1.67;;;1.57;;
20928;SDS011;21895;47.072;15.132;2024-01-15T03:07:36;4.57;;;2.23;;
20928;SDS011;21895;47.072;15.132;2024-01-15T03:10:03;6.87;;;3.67;;
20928;SDS011;21895;47.072;15.132;2024-01-15T03:12:32;5.90;;;1.07;;
20928;SDS011;21895;47.072;15.132;2024-01-15T03:14:58;7.13;;;2.40;;
20928;SDS011;21895;47.072;15.132;2024-01-15T03:17:25;5.20;;;3.10;;
20928;SDS011;21895;47.072;15.132;2024-01-15T03:19:52;12.93;;;3.63;;
20928;SDS011;21895;47.072;15.132;2024-01-15T03:22:19;3.93;;;2.20;;
20928;SDS011;21895;47.072;15.132;2024-01-15T03:24:45;5.10;;;3.13;;
20928;SDS011;21895;47.072;15.132;2024-01-15T03:27:12;17.30;;;4.57;;
20928;SDS011;21895;47.072;15.132;2024-01-15T03:29:39;7.53;;;3.87;;
20928;SDS011;21895;47.072;15.132;2024-01-15T03:32:06;11.73;;;5.13;;
20928;SDS011;21895;47.072;15.132;2024-01-15T03:34:33;4.33;;;3.00;;
20928;SDS011;21895;47.072;15.132;2024-01-15T03:37:00;8.03;;;3.40;;
20928;SDS011;21895;47.072;15.132;2024-01-15T03:39:26;4.50;;;3.87;;
20928;SDS011;21895;47.072;15.132;2024-01-15T03:41:53;15.23;;;5.93;;
20928;SDS011;21895;47.072;15.132;2024-01-15T03:44:20;3.27;;;2.53;;
20928;SDS011;21895;47.072;15.132;2024-01-15T03:46:47;8.60;;;3.93;;
20928;SDS011;21895;47.072;15.132;2024-01-15T03:49:14;6.40;;;2.30;;
20928;SDS011;21895;47.072;15.132;2024-01-15T03:51:40;4.60;;;2.87;;
20928;SDS011;21895;47.072;15.132;2024-01-15T03:54:07;5.90;;;2.20;;
20928;SDS011;21895;47.072;15.132;2024-01-15T03:56:34;4.97;;;3.33;;
20928;SDS011;21895;47.072;15.132;2024-01-15T03:59:00;6.27;;;2.97;;
20928;SDS011;21895;47.072;15.132;2024-01-15T04:01:27;6.27;;;2.50;;
20928;SDS011;21895;47.072;15.132;2024-01-15T04:03:55;1.87;;;1.27;;
20928;SDS011;21895;47.072;15.132;2024-01-15T04:06:21;7.63;;;2.03;;
20928;SDS011;21895;47.072;15.132;2024-01-15T04:08:48;8.73;;;4.30;;
20928;SDS011;21895;47.072;15.132;2024-01-15T04:11:15;5.77;;;2.90;;
20928;SDS011;21895;47.072;15.132;2024-01-15T04:13:41;7.10;;;2.13;;
20928;SDS011;21895;47.072;15.132;2024-01-15T04:16:08;7.50;;;3.40;;
20928;SDS011;21895;47.072;15.132;2024-01-15T04:18:35;5.83;;;2.93;;
20928;SDS011;21895;47.072;15.132;2024-01-15T04:21:03;2.10;;;1.90;;
20928;SDS011;21895;47.072;15.132;2024-01-15T04:23:32;4.47;;;2.07;;
20928;SDS011;21895;47.072;15.132;2024-01-15T04:25:59;5.53;;;1.97;;
20928;SDS011;21895;47.072;15.132;2024-01-15T04:28:25;6.93;;;2.83;;
20928;SDS011;21895;47.072;15.132;2024-01-15T04:30:52;7.23;;;3.53;;
20928;SDS011;21895;47.072;15.132;2024-01-15T04:33:19;4.23;;;1.83;;
20928;SDS011;21895;47.072;15.132;2024-01-15T04:35:46;3.30;;;2.07;;
20928;SDS011;21895;47.072;15.132;2024-01-15T04:38:12;2.83;;;1.90;;
20928;SDS011;21895;47.072;15.132;2024-01-15T04:40:39;6.27;;;3.50;;
20928;SDS011;21895;47.072;15.132;2024-01-15T04:43:06;3.43;;;2.17;;
20928;SDS011;21895;47.072;15.132;2024-01-15T04:45:33;4.30;;;3.13;;
20928;SDS011;21895;47.072;15.132;2024-01-15T04:47:59;4.03;;;2.13;;
20928;SDS011;21895;47.072;15.132;2024-01-15T04:50:26;1.93;;;1.57;;
20928;SDS011;21895;47.072;15.132;2024-01-15T04:52:52;3.33;;;1.87;;
20928;SDS011;21895;47.072;15.132;2024-01-15T04:55:19;8.17;;;2.57;;
20928;SDS011;21895;47.072;15.132;2024-01-15T04:57:46;6.63;;;3.67;;
20928;SDS011;21895;47.072;15.132;2024-01-15T05:00:12;11.53;;;3.20;;
20928;SDS011;21895;47.072;15.132;2024-01-15T05:02:40;7.83;;;2.77;;
20928;SDS011;21895;47.072;15.132;2024-01-15T05:05:07;4.93;;;2.57;;
20928;SDS011;21895;47.072;15.132;2024-01-15T05:07:33;8.67;;;2.53;;
20928;SDS011;21895;47.072;15.132;2024-01-15T05:10:00;7.10;;;3.07;;
20928;SDS011;21895;47.072;15.132;2024-01-15T05:12:27;6.23;;;4.13;;
20928;SDS011;21895;47.072;15.132;2024-01-15T05:14:53;5.43;;;2.73;;
20928;SDS011;21895;47.072;15.132;2024-01-15T05:17:20;6.37;;;3.10;;
20928;SDS011;21895;47.072;15.132;2024-01-15T05:19:47;2.37;;;2.07;;
20928;SDS011;21895;47.072;15.132;2024-01-15T05:22:13;2.13;;;1.93;;
20928;SDS011;21895;47.072;15.132;2024-01-15T05:24:40;4.70;;;2.33;;
20928;SDS011;21895;47.072;15.132;2024-01-15T05:27:07;2.07;;;1.33;;
20928;SDS011;21895;47.072;15.132;2024-01-15T05:29:34;9.57;;;3.03;;
20928;SDS011;21895;47.072;15.132;2024-01-15T05:32:00;7.00;;;2.77;;
20928;SDS011;21895;47.072;15.132;2024-01-15T05:34:28;18.53;;;2.40;;
20928;SDS011;21895;47.072;15.132;2024-01-15T05:36:55;4.57;;;2.77;;
20928;SDS011;21895;47.072;15.132;2024-01-15T05:39:21;4.67;;;1.83;;
20928;SDS011;21895;47.072;15.132;2024-01-15T05:41:49;8.97;;;2.30;;
20928;SDS011;21895;47.072;15.132;2024-01-15T05:44:16;7.87;;;3.57;;
20928;SDS011;21895;47.072;15.132;2024-01-15T05:46:42;7.73;;;2.47;;
20928;SDS011;21895;47.072;15.132;2024-01-15T05:49:09;9.83;;;2.87;;
20928;SDS011;21895;47.072;15.132;2024-01-15T05:51:36;3.17;;;2.43;;
20928;SDS011;21895;47.072;15.132;2024-01-15T05:54:03;1.50;;;1.37;;
20928;SDS011;21895;47.072;15.132;2024-01-15T05:56:29;5.43;;;3.10;;
20928;SDS011;21895;47.072;15.132;2024-01-15T05:58:56;6.27;;;1.97;;
20928;SDS011;21895;47.072;15.132;2024-01-15T06:01:23;4.30;;;2.27;;
20928;SDS011;21895;47.072;15.132;2024-01-15T06:03:50;1.93;;;1.63;;
20928;SDS011;21895;47.072;15.132;2024-01-15T06:06:16;4.23;;;2.33;;
20928;SDS011;21895;47.072;15.132;2024-01-15T06:08:43;9.03;;;3.47;;
20928;SDS011;21895;47.072;15.132;2024-01-15T06:11:10;2.50;;;1.70;;
20928;SDS011;21895;47.072;15.132;2024-01-15T06:13:36;6.07;;;2.67;;
20928;SDS011;21895;47.072;15.132;2024-01-15T06:16:05;2.17;;;1.83;;
20928;SDS011;21895;47.072;15.132;2024-01-15T06:18:41;4.97;;;2.53;;
20928;SDS011;21895;47.072;15.132;2024-01-15T06:21:07;5.33;;;1.77;;
20928;SDS011;21895;47.072;15.132;2024-01-15T06:23:36;1.90;;;1.30;;
20928;SDS011;21895;47.072;15.132;2024-01-15T06:26:03;3.03;;;2.43;;
20928;SDS011;21895;47.072;15.132;2024-01-15T06:28:30;2.30;;;1.80;;
20928;SDS011;21895;47.072;15.132;2024-01-15T06:30:57;5.87;;;2.20;;
20928;SDS011;21895;47.072;15.132;2024-01-15T06:33:24;1.83;;;1.73;;
20928;SDS011;21895;47.072;15.132;2024-01-15T06:35:51;5.77;;;1.70;;
20928;SDS011;21895;47.072;15.132;2024-01-15T06:38:17;4.07;;;1.47;;
20928;SDS011;21895;47.072;15.132;2024-01-15T06:40:44;4.63;;;2.40;;
20928;SDS011;21895;47.072;15.132;2024-01-15T06:43:11;2.53;;;1.37;;
20928;SDS011;21895;47.072;15.132;2024-01-15T06:45:38;2.57;;;2.37;;
20928;SDS011;21895;47.072;15.132;2024-01-15T06:48:05;3.23;;;2.87;;
20928;SDS011;21895;47.072;15.132;2024-01-15T06:50:33;1.83;;;1.73;;
20928;SDS011;21895;47.072;15.132;2024-01-15T06:52:59;2.10;;;1.57;;
20928;SDS011;21895;47.072;15.132;2024-01-15T06:55:26;2.07;;;1.63;;
20928;SDS011;21895;47.072;15.132;2024-01-15T06:57:53;7.13;;;2.97;;
20928;SDS011;21895;47.072;15.132;2024-01-15T07:00:20;9.57;;;1.93;;
20928;SDS011;21895;47.072;15.132;2024-01-15T07:02:47;8.17;;;2.20;;
20928;SDS011;21895;47.072;15.132;2024-01-15T07:05:13;2.40;;;2.00;;
20928;SDS011;21895;47.072;15.132;2024-01-15T07:07:40;1.13;;;1.13;;
20928;SDS011;21895;47.072;15.132;2024-01-15T07:10:07;3.30;;;2.20;;
20928;SDS011;21895;47.072;15.132;2024-01-15T07:12:34;2.73;;;2.00;;
20928;SDS011;21895;47.072;15.132;2024-01-15T07:15:01;2.67;;;2.47;;
20928;SDS011;21895;47.072;15.132;2024-01-15T07:17:27;1.30;;;1.20;;
20928;SDS011;21895;47.072;15.132;2024-01-15T07:19:54;2.20;;;1.37;;
20928;SDS011;21895;47.072;15.132;2024-01-15T07:22:20;12.43;;;1.63;;
20928;SDS011;21895;47.072;15.132;2024-01-15T07:24:47;3.47;;;2.03;;
20928;SDS011;21895;47.072;15.132;2024-01-15T07:27:14;5.20;;;1.73;;
20928;SDS011;21895;47.072;15.132;2024-01-15T07:29:40;4.30;;;2.17;;
20928;SDS011;21895;47.072;15.132;2024-01-15T07:32:08;3.93;;;1.97;;
20928;SDS011;21895;47.072;15.132;2024-01-15T07:34:36;4.47;;;3.27;;
20928;SDS011;21895;47.072;15.132;2024-01-15T07:37:03;17.80;;;5.57;;
20928;SDS011;21895;47.072;15.132;2024-01-15T07:39:29;7.57;;;4.03;;
20928;SDS011;21895;47.072;15.132;2024-01-15T07:41:57;5.90;;;3.03;;
20928;SDS011;21895;47.072;15.132;2024-01-15T07:44:23;3.77;;;2.10;;
20928;SDS011;21895;47.072;15.132;2024-01-15T07:46:50;6.70;;;2.17;;
20928;SDS011;21895;47.072;15.132;2024-01-15T07:49:16;1.42;;;1.26;;
20928;SDS011;21895;47.072;15.132;2024-01-15T07:51:43;2.90;;;2.33;;
20928;SDS011;21895;47.072;15.132;2024-01-15T07:54:10;15.43;;;4.97;;
20928;SDS011;21895;47.072;15.132;2024-01-15T08:01:54;3.23;;;2.33;;
20928;SDS011;21895;47.072;15.132;2024-01-15T08:04:21;4.73;;;2.03;;
20928;SDS011;21895;47.072;15.132;2024-01-15T08:06:47;5.20;;;3.50;;
20928;SDS011;21895;47.072;15.132;2024-01-15T08:09:14;4.60;;;2.87;;
20928;SDS011;21895;47.072;15.132;2024-01-15T08:11:42;5.27;;;1.73;;
20928;SDS011;21895;47.072;15.132;2024-01-15T08:14:09;14.40;;;4.47;;
20928;SDS011;21895;47.072;15.132;2024-01-15T08:16:37;8.00;;;4.20;;
20928;SDS011;21895;47.072;15.132;2024-01-15T08:19:04;5.07;;;3.50;;
20928;SDS011;21895;47.072;15.132;2024-01-15T08:21:31;9.57;;;3.90;;
20928;SDS011;21895;47.072;15.132;2024-01-15T08:24:01;5.93;;;3.00;;
20928;SDS011;21895;47.072;15.132;2024-01-15T08:26:29;11.97;;;4.00;;
20928;SDS011;21895;47.072;15.132;2024-01-15T08:28:55;8.87;;;4.70;;
20928;SDS011;21895;47.072;15.132;2024-01-15T08:31:22;9.83;;;4.47;;
20928;SDS011;21895;47.072;15.132;2024-01-15T08:33:49;10.73;;;5.63;;
20928;SDS011;21895;47.072;15.132;2024-01-15T08:36:17;13.53;;;5.87;;
20928;SDS011;21895;47.072;15.132;2024-01-15T08:38:44;12.13;;;5.97;;
20928;SDS011;21895;47.072;15.132;2024-01-15T08:41:11;19.50;;;7.13;;
20928;SDS011;21895;47.072;15.132;2024-01-15T08:43:38;9.33;;;6.10;;
20928;SDS011;21895;47.072;15.132;2024-01-15T08:46:05;10.43;;;5.63;;
20928;SDS011;21895;47.072;15.132;2024-01-15T08:48:31;12.90;;;6.93;;
20928;SDS011;21895;47.072;15.132;2024-01-15T08:50:58;12.60;;;6.73;;
20928;SDS011;21895;47.072;15.132;2024-01-15T08:53:25;17.37;;;4.73;;
20928;SDS011;21895;47.072;15.132;2024-01-15T08:55:51;23.93;;;7.87;;
20928;SDS011;21895;47.072;15.132;2024-01-15T08:58:18;19.90;;;6.67;;
20928;SDS011;21895;47.072;15.132;2024-01-15T09:00:44;15.47;;;6.37;;
20928;SDS011;21895;47.072;15.132;2024-01-15T09:03:11;10.00;;;4.30;;
20928;SDS011;21895;47.072;15.132;2024-01-15T09:05:38;6.27;;;3.13;;
20928;SDS011;21895;47.072;15.132;2024-01-15T09:08:06;6.97;;;3.80;;
20928;SDS011;21895;47.072;15.132;2024-01-15T09:10:33;19.00;;;7.87;;
20928;SDS011;21895;47.072;15.132;2024-01-15T09:12:59;18.80;;;6.37;;
20928;SDS011;21895;47.072;15.132;2024-01-15T09:15:26;12.40;;;4.13;;
20928;SDS011;21895;47.072;15.132;2024-01-15T09:17:53;18.63;;;5.67;;
20928;SDS011;21895;47.072;15.132;2024-01-15T09:20:19;13.03;;;6.20;;
20928;SDS011;21895;47.072;15.132;2024-01-15T09:22:46;16.27;;;6.50;;
20928;SDS011;21895;47.072;15.132;2024-01-15T09:25:13;19.23;;;6.20;;
20928;SDS011;21895;47.072;15.132;2024-01-15T09:27:39;18.10;;;5.17;;
20928;SDS011;21895;47.072;15.132;2024-01-15T09:30:06;37.47;;;8.30;;
20928;SDS011;21895;47.072;15.132;2024-01-15T09:32:34;34.40;;;6.70;;
20928;SDS011;21895;47.072;15.132;2024-01-15T09:35:00;19.97;;;7.67;;
20928;SDS011;21895;47.072;15.132;2024-01-15T09:37:27;23.40;;;7.23;;
20928;SDS011;21895;47.072;15.132;2024-01-15T09:40:12;13.33;;;5.17;;
20928;SDS011;21895;47.072;15.132;2024-01-15T09:42:40;21.10;;;6.20;;
20928;SDS011;21895;47.072;15.132;2024-01-15T09:45:08;23.80;;;7.77;;
20928;SDS011;21895;47.072;15.132;2024-01-15T09:47:36;34.03;;;8.50;;
20928;SDS011;21895;47.072;15.132;2024-01-15T09:50:09;19.10;;;6.40;;
20928;SDS011;21895;47.072;15.132;2024-01-15T09:52:51;18.17;;;6.00;;
20928;SDS011;21895;47.072;15.132;2024-01-15T09:55:18;15.87;;;6.13;;
20928;SDS011;21895;47.072;15.132;2024-01-15T09:57:45;25.33;;;7.90;;
20928;SDS011;21895;47.072;15.132;2024-01-15T10:00:12;21.60;;;7.37;;
20928;SDS011;21895;47.072;15.132;2024-01-15T10:02:38;26.97;;;8.30;;
20928;SDS011;21895;47.072;15.132;2024-01-15T10:05:05;23.37;;;7.43;;
20928;SDS011;21895;47.072;15.132;2024-01-15T10:07:35;16.47;;;6.97;;
20928;SDS011;21895;47.072;15.132;2024-01-15T10:10:03;29.47;;;9.27;;
20928;SDS011;21895;47.072;15.132;2024-01-15T10:12:31;22.27;;;7.73;;
20928;SDS011;21895;47.072;15.132;2024-01-15T10:14:58;36.13;;;9.03;;
20928;SDS011;21895;47.072;15.132;2024-01-15T10:17:25;12.50;;;6.30;;
20928;SDS011;21895;47.072;15.132;2024-01-15T10:19:53;23.93;;;7.20;;
20928;SDS011;21895;47.072;15.132;2024-01-15T10:22:20;17.73;;;6.73;;
20928;SDS011;21895;47.072;15.132;2024-01-15T10:24:46;18.20;;;6.83;;
20928;SDS011;21895;47.072;15.132;2024-01-15T10:27:14;21.20;;;6.63;;
20928;SDS011;21895;47.072;15.132;2024-01-15T10:29:41;17.77;;;6.57;;
20928;SDS011;21895;47.072;15.132;2024-01-15T10:32:09;18.10;;;6.03;;
20928;SDS011;21895;47.072;15.132;2024-01-15T10:34:37;13.30;;;4.87;;
20928;SDS011;21895;47.072;15.132;2024-01-15T10:37:08;14.00;;;3.70;;
20928;SDS011;21895;47.072;15.132;2024-01-15T10:39:36;10.33;;;2.10;;
20928;SDS011;21895;47.072;15.132;2024-01-15T10:42:04;10.40;;;3.13;;
20928;SDS011;21895;47.072;15.132;2024-01-15T10:44:31;8.57;;;3.10;;
20928;SDS011;21895;47.072;15.132;2024-01-15T10:46:58;12.20;;;4.20;;
20928;SDS011;21895;47.072;15.132;2024-01-15T10:49:25;18.97;;;3.40;;
20928;SDS011;21895;47.072;15.132;2024-01-15T10:51:58;5.47;;;2.50;;
20928;SDS011;21895;47.072;15.132;2024-01-15T10:54:29;7.07;;;3.43;;
20928;SDS011;21895;47.072;15.132;2024-01-15T10:56:58;5.87;;;2.93;;
20928;SDS011;21895;47.072;15.132;2024-01-15T10:59:24;9.20;;;2.67;;
20928;SDS011;21895;47.072;15.132;2024-01-15T11:01:51;4.60;;;1.70;;
20928;SDS011;21895;47.072;15.132;2024-01-15T11:04:19;5.60;;;2.43;;
20928;SDS011;21895;47.072;15.132;2024-01-15T11:06:52;10.67;;;2.77;;
20928;SDS011;21895;47.072;15.132;2024-01-15T11:09:21;7.23;;;2.53;;
20928;SDS011;21895;47.072;15.132;2024-01-15T11:11:52;5.87;;;1.80;;
20928;SDS011;21895;47.072;15.132;2024-01-15T11:17:57;7.63;;;2.17;;
20928;SDS011;21895;47.072;15.132;2024-01-15T11:20:26;5.13;;;2.80;;
20928;SDS011;21895;47.072;15.132;2024-01-15T11:22:53;3.97;;;2.13;;
20928;SDS011;21895;47.072;15.132;2024-01-15T11:25:22;7.57;;;3.07;;
20928;SDS011;21895;47.072;15.132;2024-01-15T11:27:50;2.50;;;2.07;;
20928;SDS011;21895;47.072;15.132;2024-01-15T11:30:24;7.23;;;2.70;;
20928;SDS011;21895;47.072;15.132;2024-01-15T11:32:52;4.80;;;2.37;;
20928;SDS011;21895;47.072;15.132;2024-01-15T11:35:19;5.83;;;2.50;;
20928;SDS011;21895;47.072;15.132;2024-01-15T11:41:12;9.63;;;2.90;;
20928;SDS011;21895;47.072;15.132;2024-01-15T11:43:43;9.53;;;2.80;;
20928;SDS011;21895;47.072;15.132;2024-01-15T11:46:10;7.50;;;3.03;;
20928;SDS011;21895;47.072;15.132;2024-01-15T11:48:43;5.90;;;2.70;;
20928;SDS011;21895;47.072;15.132;2024-01-15T11:51:11;9.50;;;3.30;;
20928;SDS011;21895;47.072;15.132;2024-01-15T11:56:28;8.10;;;3.07;;
20928;SDS011;21895;47.072;15.132;2024-01-15T11:58:57;7.67;;;2.70;;
20928;SDS011;21895;47.072;15.132;2024-01-15T12:01:23;7.03;;;3.60;;
20928;SDS011;21895;47.072;15.132;2024-01-15T12:03:51;5.77;;;2.90;;
20928;SDS011;21895;47.072;15.132;2024-01-15T12:06:18;10.00;;;3.03;;
20928;SDS011;21895;47.072;15.132;2024-01-15T12:08:47;6.37;;;3.00;;
20928;SDS011;21895;47.072;15.132;2024-01-15T12:11:14;5.17;;;2.23;;
20928;SDS011;21895;47.072;15.132;2024-01-15T12:13:46;8.23;;;2.73;;
20928;SDS011;21895;47.072;15.132;2024-01-15T12:16:13;10.67;;;3.20;;
20928;SDS011;21895;47.072;15.132;2024-01-15T12:18:39;8.33;;;3.23;;
20928;SDS011;21895;47.072;15.132;2024-01-15T12:21:07;7.97;;;2.33;;
20928;SDS011;21895;47.072;15.132;2024-01-15T12:23:35;8.00;;;3.47;;
20928;SDS011;21895;47.072;15.132;2024-01-15T12:26:02;9.40;;;2.80;;
20928;SDS011;21895;47.072;15.132;2024-01-15T12:28:29;9.37;;;2.90;;
20928;SDS011;21895;47.072;15.132;2024-01-15T12:30:56;7.00;;;2.67;;
20928;SDS011;21895;47.072;15.132;2024-01-15T12:33:25;17.33;;;2.67;;
20928;SDS011;21895;47.072;15.132;2024-01-15T12:35:55;7.80;;;3.07;;
20928;SDS011;21895;47.072;15.132;2024-01-15T12:38:21;7.80;;;2.77;;
20928;SDS011;21895;47.072;15.132;2024-01-15T12:40:48;7.93;;;3.07;;
20928;SDS011;21895;47.072;15.132;2024-01-15T12:43:15;7.90;;;3.30;;
20928;SDS011;21895;47.072;15.132;2024-01-15T12:45:43;11.43;;;3.17;;
20928;SDS011;21895;47.072;15.132;2024-01-15T12:48:10;12.63;;;3.40;;
20928;SDS011;21895;47.072;15.132;2024-01-15T12:50:37;8.73;;;3.30;;
20928;SDS011;21895;47.072;15.132;2024-01-15T12:53:04;9.13;;;3.60;;
20928;SDS011;21895;47.072;15.132;2024-01-15T12:55:30;11.33;;;4.63;;
20928;SDS011;21895;47.072;15.132;2024-01-15T12:57:57;7.93;;;3.50;;
20928;SDS011;21895;47.072;15.132;2024-01-15T13:00:24;9.03;;;3.50;;
20928;SDS011;21895;47.072;15.132;2024-01-15T13:02:51;8.13;;;3.43;;
20928;SDS011;21895;47.072;15.132;2024-01-15T13:05:18;6.27;;;2.03;;
20928;SDS011;21895;47.072;15.132;2024-01-15T13:07:47;8.03;;;2.83;;
20928;SDS011;21895;47.072;15.132;2024-01-15T13:10:14;4.67;;;2.60;;
20928;SDS011;21895;47.072;15.132;2024-01-15T13:12:40;7.63;;;3.43;;
20928;SDS011;21895;47.072;15.132;2024-01-15T13:15:08;6.87;;;2.33;;
20928;SDS011;21895;47.072;15.132;2024-01-15T13:17:39;9.97;;;3.57;;
20928;SDS011;21895;47.072;15.132;2024-01-15T13:20:06;12.87;;;5.03;;
20928;SDS011;21895;47.072;15.132;2024-01-15T13:22:34;16.10;;;3.87;;
20928;SDS011;21895;47.072;15.132;2024-01-15T13:25:01;9.63;;;3.03;;
20928;SDS011;21895;47.072;15.132;2024-01-15T13:27:29;7.57;;;3.03;;
20928;SDS011;21895;47.072;15.132;2024-01-15T13:29:56;13.50;;;4.40;;
20928;SDS011;21895;47.072;15.132;2024-01-15T13:32:24;8.40;;;4.13;;
20928;SDS011;21895;47.072;15.132;2024-01-15T13:34:51;15.53;;;4.03;;
20928;SDS011;21895;47.072;15.132;2024-01-15T13:37:18;12.17;;;3.80;;
20928;SDS011;21895;47.072;15.132;2024-01-15T13:39:45;13.20;;;4.90;;
20928;SDS011;21895;47.072;15.132;2024-01-15T13:42:11;13.17;;;4.10;;
20928;SDS011;21895;47.072;15.132;2024-01-15T13:44:41;12.27;;;4.67;;
20928;SDS011;21895;47.072;15.132;2024-01-15T13:47:08;9.43;;;3.93;;
20928;SDS011;21895;47.072;15.132;2024-01-15T13:49:34;12.20;;;3.97;;
20928;SDS011;21895;47.072;15.132;2024-01-15T13:52:02;9.57;;;4.33;;
20928;SDS011;21895;47.072;15.132;2024-01-15T13:54:29;17.57;;;4.63;;
20928;SDS011;21895;47.072;15.132;2024-01-15T13:57:14;13.27;;;4.63;;
20928;SDS011;21895;47.072;15.132;2024-01-15T13:59:41;11.03;;;3.93;;
20928;SDS011;21895;47.072;15.132;2024-01-15T14:02:08;17.80;;;4.93;;
20928;SDS011;21895;47.072;15.132;2024-01-15T14:04:35;14.63;;;4.37;;
20928;SDS011;21895;47.072;15.132;2024-01-15T14:07:02;19.60;;;4.57;;
20928;SDS011;21895;47.072;15.132;2024-01-15T14:09:30;14.17;;;4.27;;
20928;SDS011;21895;47.072;15.132;2024-01-15T14:11:57;17.03;;;4.97;;
20928;SDS011;21895;47.072;15.132;2024-01-15T14:14:24;16.83;;;5.20;;
20928;SDS011;21895;47.072;15.132;2024-01-15T14:16:50;10.97;;;4.20;;
20928;SDS011;21895;47.072;15.132;2024-01-15T14:19:17;15.03;;;4.13;;
20928;SDS011;21895;47.072;15.132;2024-01-15T14:21:44;11.17;;;4.10;;
20928;SDS011;21895;47.072;15.132;2024-01-15T14:24:11;10.90;;;4.17;;
20928;SDS011;21895;47.072;15.132;2024-01-15T14:26:40;17.30;;;3.70;;
20928;SDS011;21895;47.072;15.132;2024-01-15T14:29:07;11.03;;;3.57;;
20928;SDS011;21895;47.072;15.132;2024-01-15T14:31:34;25.37;;;4.13;;
20928;SDS011;21895;47.072;15.132;2024-01-15T14:34:01;11.27;;;3.90;;
20928;SDS011;21895;47.072;15.132;2024-01-15T14:36:28;14.53;;;4.17;;
20928;SDS011;21895;47.072;15.132;2024-01-15T14:38:55;16.73;;;4.33;;
20928;SDS011;21895;47.072;15.132;2024-01-15T14:41:22;8.10;;;4.17;;
20928;SDS011;21895;47.072;15.132;2024-01-15T14:43:48;12.90;;;4.93;;
20928;SDS011;21895;47.072;15.132;2024-01-15T14:46:15;20.00;;;5.73;;